createdAt,value
2022-09-26T00:00:19.512Z,98533.88
2022-09-26T00:01:37.232Z,98535.40
2022-09-26T00:02:10.515Z,98531.33
2022-09-26T00:02:45.167Z,98537.00
2022-09-26T00:03:18.620Z,98538.98
2022-09-26T00:03:55.576Z,98538.33
2022-09-26T00:04:32.787Z,98535.77
2022-09-26T00:05:06.809Z,98536.27
2022-09-26T00:05:39.996Z,98539.42
2022-09-26T00:06:13.797Z,98537.38
2022-09-26T00:06:47.848Z,98537.56
2022-09-26T00:07:21.179Z,98537.89
2022-09-26T00:07:54.368Z,98538.09
2022-09-26T00:08:27.570Z,98542.34
2022-09-26T00:09:00.887Z,98540.52
2022-09-26T00:09:34.081Z,98542.70
2022-09-26T00:10:07.726Z,98544.64
2022-09-26T00:10:40.765Z,98544.66
2022-09-26T00:11:18.010Z,98546.81
2022-09-26T00:11:51.298Z,98546.33
2022-09-26T00:12:24.333Z,98542.95
2022-09-26T00:12:57.510Z,98546.68
2022-09-26T00:13:32.316Z,98548.14
2022-09-26T00:14:09.300Z,98547.70
2022-09-26T00:14:42.759Z,98544.81
2022-09-26T00:15:16.007Z,98544.13
2022-09-26T00:15:49.324Z,98546.65
2022-09-26T00:16:22.753Z,98544.17
2022-09-26T00:16:56.733Z,98543.64
2022-09-26T00:17:30.049Z,98542.63
2022-09-26T00:18:03.306Z,98547.05
2022-09-26T00:18:37.028Z,98543.64
2022-09-26T00:19:10.272Z,98545.11
2022-09-26T00:19:43.338Z,98548.59
2022-09-26T00:20:17.049Z,98545.51
2022-09-26T00:20:50.978Z,98547.38
2022-09-26T00:21:25.483Z,98547.30
2022-09-26T00:21:58.666Z,98550.10
2022-09-26T00:22:31.705Z,98543.76
2022-09-26T00:23:04.910Z,98548.25
2022-09-26T00:23:39.135Z,98545.38
2022-09-26T00:24:12.605Z,98544.94
2022-09-26T00:24:45.672Z,98543.44
2022-09-26T00:25:19.766Z,98542.99
2022-09-26T00:25:52.792Z,98544.61
2022-09-26T00:26:28.381Z,98546.56
2022-09-26T00:27:01.529Z,98540.16
2022-09-26T00:27:34.661Z,98546.00
2022-09-26T00:28:07.671Z,98542.76
2022-09-26T00:28:41.782Z,98546.23
2022-09-26T00:29:15.469Z,98542.27
2022-09-26T00:29:48.738Z,98541.20
2022-09-26T00:30:22.000Z,98544.91
2022-09-26T00:30:56.892Z,98541.59
2022-09-26T00:31:32.910Z,98542.42
2022-09-26T00:32:06.036Z,98541.00
2022-09-26T00:32:39.079Z,98539.75
2022-09-26T00:33:12.837Z,98539.70
2022-09-26T00:33:45.922Z,98539.06
2022-09-26T00:34:20.260Z,98541.52
2022-09-26T00:34:53.843Z,98543.02
2022-09-26T00:35:26.834Z,98540.36
2022-09-26T00:36:00.385Z,98538.94
2022-09-26T00:36:38.414Z,98539.45
2022-09-26T00:37:12.087Z,98539.06
2022-09-26T00:37:45.294Z,98540.33
2022-09-26T00:38:19.375Z,98537.57
2022-09-26T00:38:52.550Z,98537.80
2022-09-26T00:39:25.549Z,98535.50
2022-09-26T00:39:59.005Z,98538.38
2022-09-26T00:40:32.885Z,98538.29
2022-09-26T00:41:07.690Z,98537.04
2022-09-26T00:41:40.904Z,98537.77
2022-09-26T00:42:15.719Z,98536.63
2022-09-26T00:42:48.796Z,98536.85
2022-09-26T00:43:44.482Z,98533.53
2022-09-26T00:44:45.370Z,98537.14
2022-09-26T00:45:19.545Z,98537.44
2022-09-26T00:45:53.952Z,98534.58
2022-09-26T00:46:48.506Z,98536.35
2022-09-26T00:47:29.775Z,98538.98
2022-09-26T00:48:05.887Z,98538.65
2022-09-26T00:48:41.594Z,98537.39
2022-09-26T00:49:31.394Z,98537.27
2022-09-26T00:50:14.750Z,98536.67
2022-09-26T00:50:48.453Z,98535.02
2022-09-26T00:51:21.900Z,98533.59
2022-09-26T00:52:07.539Z,98535.77
2022-09-26T00:52:46.046Z,98532.56
2022-09-26T00:53:36.070Z,98532.45
2022-09-26T00:54:16.790Z,98535.73
2022-09-26T00:54:52.071Z,98535.45
2022-09-26T00:55:30.325Z,98535.98
2022-09-26T00:56:10.235Z,98533.39
2022-09-26T00:56:47.653Z,98533.63
2022-09-26T00:57:33.592Z,98531.77
2022-09-26T00:58:12.901Z,98530.67
2022-09-26T00:58:54.647Z,98533.05
2022-09-26T00:59:34.286Z,98529.81
2022-09-26T01:00:11.022Z,98528.68
2022-09-26T01:00:47.369Z,98531.92
2022-09-26T01:01:21.448Z,98526.57
2022-09-26T01:01:58.871Z,98526.05
2022-09-26T01:02:32.398Z,98525.95
2022-09-26T01:03:05.692Z,98522.48
2022-09-26T01:03:41.917Z,98520.00
2022-09-26T01:04:15.674Z,98521.33
2022-09-26T01:04:48.875Z,98515.41
2022-09-26T01:05:24.135Z,98513.30
2022-09-26T01:05:58.323Z,98515.41
2022-09-26T01:06:32.444Z,98513.25
2022-09-26T01:07:11.272Z,98512.67
2022-09-26T01:07:44.824Z,98512.92
2022-09-26T01:08:25.552Z,98513.98
2022-09-26T01:09:09.162Z,98513.16
2022-09-26T01:09:43.069Z,98513.85
2022-09-26T01:10:16.613Z,98516.15
2022-09-26T01:10:50.755Z,98515.51
2022-09-26T01:11:23.729Z,98515.71
2022-09-26T01:11:57.440Z,98516.96
2022-09-26T01:12:30.951Z,98516.51
2022-09-26T01:13:04.649Z,98517.10
2022-09-26T01:13:39.489Z,98519.41
2022-09-26T01:14:13.705Z,98517.19
2022-09-26T01:14:48.878Z,98519.23
2022-09-26T01:15:21.968Z,98517.52
2022-09-26T01:15:55.058Z,98513.88
2022-09-26T01:16:28.344Z,98514.17
2022-09-26T01:17:02.247Z,98514.90
2022-09-26T01:17:39.070Z,98512.88
2022-09-26T01:18:12.383Z,98514.98
2022-09-26T01:18:46.429Z,98516.73
2022-09-26T01:19:56.375Z,98515.15
2022-09-26T01:21:10.406Z,98511.74
2022-09-26T01:22:06.846Z,98510.15
2022-09-26T01:22:56.260Z,98506.59
2022-09-26T01:23:35.386Z,98509.14
2022-09-26T01:24:41.791Z,98508.02
2022-09-26T01:25:36.846Z,98508.70
2022-09-26T01:26:43.507Z,98511.48
2022-09-26T01:27:28.940Z,98510.31
2022-09-26T01:28:22.685Z,98514.05
2022-09-26T01:29:31.475Z,98512.80
2022-09-26T01:30:26.819Z,98514.16
2022-09-26T01:31:22.929Z,98514.81
2022-09-26T01:32:34.650Z,98512.06
2022-09-26T01:33:07.988Z,98514.02
2022-09-26T01:34:08.493Z,98514.42
2022-09-26T01:35:26.368Z,98512.99
2022-09-26T01:36:15.011Z,98512.75
2022-09-26T01:37:10.224Z,98510.28
2022-09-26T01:38:04.283Z,98507.61
2022-09-26T01:38:59.754Z,98510.23
2022-09-26T01:39:55.729Z,98507.85
2022-09-26T01:41:07.690Z,98504.73
2022-09-26T01:42:19.401Z,98504.32
2022-09-26T01:43:07.033Z,98502.61
2022-09-26T01:44:01.670Z,98501.37
2022-09-26T01:44:50.009Z,98504.39
2022-09-26T01:45:31.621Z,98501.03
2022-09-26T01:46:13.823Z,98501.56
2022-09-26T01:46:56.216Z,98497.63
2022-09-26T01:47:43.947Z,98499.87
2022-09-26T01:48:26.628Z,98500.88
2022-09-26T01:49:18.204Z,98498.32
2022-09-26T01:50:02.808Z,98496.58
2022-09-26T01:50:43.503Z,98498.12
2022-09-26T01:51:21.704Z,98495.52
2022-09-26T01:51:58.718Z,98493.74
2022-09-26T01:53:01.842Z,98492.05
2022-09-26T01:53:39.672Z,98492.48
2022-09-26T01:54:18.487Z,98491.83
2022-09-26T01:55:06.261Z,98490.94
2022-09-26T01:55:45.483Z,98488.19
2022-09-26T01:56:23.733Z,98492.44
2022-09-26T01:56:58.954Z,98490.70
2022-09-26T01:57:42.926Z,98491.95
2022-09-26T01:58:48.556Z,98487.09
2022-09-26T01:59:29.496Z,98487.62
2022-09-26T02:00:07.987Z,98488.35
2022-09-26T02:00:46.474Z,98488.87
2022-09-26T02:01:22.856Z,98487.09
2022-09-26T02:02:03.272Z,98488.95
2022-09-26T02:02:41.444Z,98488.75
2022-09-26T02:03:20.150Z,98486.14
2022-09-26T02:03:57.161Z,98489.31
2022-09-26T02:04:38.187Z,98489.38
2022-09-26T02:05:30.006Z,98489.57
2022-09-26T02:06:10.577Z,98486.77
2022-09-26T02:07:00.787Z,98486.94
2022-09-26T02:07:41.701Z,98487.70
2022-09-26T02:08:24.598Z,98483.86
2022-09-26T02:09:01.760Z,98482.77
2022-09-26T02:09:52.475Z,98481.98
2022-09-26T02:10:34.643Z,98483.23
2022-09-26T02:11:19.256Z,98483.09
2022-09-26T02:11:56.432Z,98484.70
2022-09-26T02:12:36.843Z,98482.23
2022-09-26T02:13:16.648Z,98478.88
2022-09-26T02:14:02.989Z,98481.59
2022-09-26T02:14:38.327Z,98478.79
2022-09-26T02:15:17.306Z,98475.22
2022-09-26T02:15:56.387Z,98473.98
2022-09-26T02:16:32.346Z,98478.50
2022-09-26T02:17:08.684Z,98475.02
2022-09-26T02:17:54.045Z,98474.25
2022-09-26T02:18:50.007Z,98474.08
2022-09-26T02:19:29.727Z,98472.30
2022-09-26T02:20:18.849Z,98473.27
2022-09-26T02:21:09.822Z,98470.73
2022-09-26T02:21:44.446Z,98469.19
2022-09-26T02:22:18.322Z,98468.86
2022-09-26T02:22:51.488Z,98473.16
2022-09-26T02:23:24.548Z,98469.18
2022-09-26T02:23:57.651Z,98469.85
2022-09-26T02:24:31.258Z,98470.23
2022-09-26T02:25:05.417Z,98469.63
2022-09-26T02:25:38.521Z,98471.05
2022-09-26T02:26:11.572Z,98468.61
2022-09-26T02:26:44.752Z,98467.26
2022-09-26T02:27:17.868Z,98468.45
2022-09-26T02:27:50.942Z,98466.30
2022-09-26T02:28:24.079Z,98469.14
2022-09-26T02:28:57.296Z,98463.71
2022-09-26T02:29:30.522Z,98465.70
2022-09-26T02:30:05.999Z,98465.29
2022-09-26T02:30:40.369Z,98465.09
2022-09-26T02:31:20.833Z,98468.25
2022-09-26T02:32:12.889Z,98461.59
2022-09-26T02:32:46.308Z,98468.20
2022-09-26T02:33:19.472Z,98465.81
2022-09-26T02:33:53.380Z,98470.08
2022-09-26T02:34:27.266Z,98469.38
2022-09-26T02:35:01.403Z,98468.77
2022-09-26T02:35:53.025Z,98469.78
2022-09-26T02:36:29.073Z,98468.73
2022-09-26T02:37:02.379Z,98465.80
2022-09-26T02:37:36.887Z,98462.01
2022-09-26T02:38:10.089Z,98469.26
2022-09-26T02:38:43.219Z,98473.34
2022-09-26T02:39:16.222Z,98472.10
2022-09-26T02:39:51.440Z,98469.06
2022-09-26T02:40:36.960Z,98469.10
2022-09-26T02:41:22.744Z,98469.90
2022-09-26T02:42:05.119Z,98472.20
2022-09-26T02:42:47.974Z,98469.45
2022-09-26T02:43:29.323Z,98471.64
2022-09-26T02:44:05.207Z,98466.62
2022-09-26T02:44:59.865Z,98466.18
2022-09-26T02:46:11.451Z,98469.74
2022-09-26T02:47:13.487Z,98469.45
2022-09-26T02:48:10.400Z,98470.15
2022-09-26T02:49:20.628Z,98465.49
2022-09-26T02:50:21.709Z,98463.83
2022-09-26T02:51:14.874Z,98462.10
2022-09-26T02:52:19.865Z,98462.00
2022-09-26T02:53:08.264Z,98462.58
2022-09-26T02:54:06.103Z,98465.05
2022-09-26T02:55:16.695Z,98462.98
2022-09-26T02:56:03.569Z,98465.86
2022-09-26T02:56:53.189Z,98462.86
2022-09-26T02:57:47.463Z,98464.69
2022-09-26T02:58:45.960Z,98467.72
2022-09-26T02:59:43.234Z,98462.95
2022-09-26T03:00:32.033Z,98463.65
2022-09-26T03:01:23.253Z,98463.21
2022-09-26T03:02:16.145Z,98460.42
2022-09-26T03:03:17.235Z,98459.90
2022-09-26T03:04:02.747Z,98455.52
2022-09-26T03:04:45.773Z,98456.23
2022-09-26T03:05:22.728Z,98454.07
2022-09-26T03:05:59.410Z,98451.23
2022-09-26T03:06:42.206Z,98458.04
2022-09-26T03:07:23.812Z,98456.54
2022-09-26T03:08:20.949Z,98458.12
2022-09-26T03:08:57.115Z,98454.55
2022-09-26T03:09:31.270Z,98455.60
2022-09-26T03:10:07.810Z,98455.44
2022-09-26T03:10:42.383Z,98456.67
2022-09-26T03:11:26.431Z,98454.55
2022-09-26T03:12:02.767Z,98454.48
2022-09-26T03:12:38.396Z,98455.70
2022-09-26T03:13:15.246Z,98457.49
2022-09-26T03:13:53.504Z,98452.80
2022-09-26T03:14:29.284Z,98455.93
2022-09-26T03:15:05.081Z,98456.42
2022-09-26T03:15:40.921Z,98450.67
2022-09-26T03:16:15.217Z,98451.80
2022-09-26T03:16:51.751Z,98451.92
2022-09-26T03:17:27.219Z,98448.15
2022-09-26T03:18:03.707Z,98448.88
2022-09-26T03:18:47.356Z,98444.98
2022-09-26T03:19:34.570Z,98443.54
2022-09-26T03:20:07.701Z,98440.34
2022-09-26T03:20:41.771Z,98441.75
2022-09-26T03:21:15.269Z,98436.15
2022-09-26T03:21:49.002Z,98430.83
2022-09-26T03:22:22.357Z,98429.31
2022-09-26T03:22:56.318Z,98433.64
2022-09-26T03:23:29.891Z,98431.82
2022-09-26T03:24:03.225Z,98427.36
2022-09-26T03:24:37.480Z,98424.61
2022-09-26T03:25:16.567Z,98425.96
2022-09-26T03:26:02.205Z,98424.45
2022-09-26T03:26:36.495Z,98426.30
2022-09-26T03:27:12.686Z,98424.83
2022-09-26T03:27:47.528Z,98423.24
2022-09-26T03:28:20.618Z,98421.82
2022-09-26T03:28:54.859Z,98421.16
2022-09-26T03:29:28.432Z,98424.21
2022-09-26T03:30:01.684Z,98419.94
2022-09-26T03:30:35.119Z,98421.45
2022-09-26T03:31:08.392Z,98419.70
2022-09-26T03:31:41.523Z,98419.95
2022-09-26T03:32:14.875Z,98419.90
2022-09-26T03:32:48.803Z,98419.00
2022-09-26T03:33:21.904Z,98415.53
2022-09-26T03:33:55.023Z,98417.96
2022-09-26T03:34:28.214Z,98414.03
2022-09-26T03:35:01.162Z,98416.21
2022-09-26T03:35:34.130Z,98415.61
2022-09-26T03:36:09.675Z,98415.15
2022-09-26T03:36:43.175Z,98413.21
2022-09-26T03:37:17.365Z,98413.58
2022-09-26T03:37:50.428Z,98414.35
2022-09-26T03:38:23.485Z,98410.45
2022-09-26T03:38:56.604Z,98413.90
2022-09-26T03:39:29.658Z,98411.00
2022-09-26T03:40:05.803Z,98406.70
2022-09-26T03:40:39.639Z,98409.81
2022-09-26T03:41:12.913Z,98408.67
2022-09-26T03:41:45.971Z,98410.94
2022-09-26T03:42:19.015Z,98407.31
2022-09-26T03:42:52.148Z,98403.78
2022-09-26T03:43:25.273Z,98405.27
2022-09-26T03:43:58.301Z,98403.36
2022-09-26T03:44:31.366Z,98403.73
2022-09-26T03:45:08.797Z,98401.58
2022-09-26T03:45:42.589Z,98402.96
2022-09-26T03:46:16.077Z,98403.23
2022-09-26T03:46:49.365Z,98399.10
2022-09-26T03:47:22.434Z,98402.19
2022-09-26T03:47:57.717Z,98401.13
2022-09-26T03:48:31.866Z,98400.96
2022-09-26T03:49:04.932Z,98400.35
2022-09-26T03:49:39.129Z,98401.98
2022-09-26T03:50:12.265Z,98401.05
2022-09-26T03:50:45.800Z,98402.27
2022-09-26T03:51:19.740Z,98402.02
2022-09-26T03:51:52.917Z,98398.89
2022-09-26T03:52:27.200Z,98400.31
2022-09-26T03:53:01.529Z,98401.00
2022-09-26T03:53:37.024Z,98400.23
2022-09-26T03:54:13.407Z,98404.39
2022-09-26T03:54:46.525Z,98402.79
2022-09-26T03:55:19.813Z,98404.45
2022-09-26T03:55:52.959Z,98400.80
2022-09-26T03:56:27.206Z,98404.73
2022-09-26T03:57:00.226Z,98401.73
2022-09-26T03:57:33.428Z,98403.29
2022-09-26T03:58:06.705Z,98402.51
2022-09-26T03:58:40.284Z,98400.56
2022-09-26T03:59:13.592Z,98399.95
2022-09-26T03:59:47.292Z,98399.95
2022-09-26T04:00:20.476Z,98402.17
2022-09-26T04:00:53.565Z,98399.27
2022-09-26T04:01:27.084Z,98404.29
2022-09-26T04:02:00.461Z,98403.48
2022-09-26T04:02:34.864Z,98404.52
2022-09-26T04:03:07.972Z,98404.08
2022-09-26T04:03:50.029Z,98405.92
2022-09-26T04:04:24.994Z,98405.27
2022-09-26T04:04:58.102Z,98403.19
2022-09-26T04:05:31.250Z,98407.14
2022-09-26T04:06:05.797Z,98406.65
2022-09-26T04:06:39.456Z,98406.36
2022-09-26T04:07:12.589Z,98407.42
2022-09-26T04:07:47.563Z,98410.02
2022-09-26T04:08:20.736Z,98410.90
2022-09-26T04:08:54.190Z,98412.12
2022-09-26T04:09:27.448Z,98411.95
2022-09-26T04:10:00.724Z,98414.63
2022-09-26T04:10:33.899Z,98413.57
2022-09-26T04:11:10.324Z,98411.98
2022-09-26T04:11:43.665Z,98412.84
2022-09-26T04:12:16.710Z,98413.00
2022-09-26T04:12:49.769Z,98412.19
2022-09-26T04:13:49.466Z,98409.96
2022-09-26T04:14:16.355Z,98406.23
2022-09-26T04:14:49.352Z,98403.41
2022-09-26T04:15:22.669Z,98406.04
2022-09-26T04:15:57.318Z,98406.65
2022-09-26T04:16:30.673Z,98406.73
2022-09-26T04:17:03.747Z,98404.50
2022-09-26T04:17:37.307Z,98406.57
2022-09-26T04:18:10.603Z,98402.64
2022-09-26T04:18:43.782Z,98406.00
2022-09-26T04:19:16.983Z,98404.79
2022-09-26T04:19:50.224Z,98407.22
2022-09-26T04:20:23.708Z,98403.33
2022-09-26T04:21:00.964Z,98401.98
2022-09-26T04:21:35.742Z,98401.54
2022-09-26T04:22:08.864Z,98401.90
2022-09-26T04:22:42.778Z,98401.98
2022-09-26T04:23:16.101Z,98402.54
2022-09-26T04:23:50.499Z,98400.87
2022-09-26T04:24:24.295Z,98404.11
2022-09-26T04:24:57.489Z,98403.11
2022-09-26T04:25:30.639Z,98403.61
2022-09-26T04:26:05.656Z,98403.96
2022-09-26T04:26:41.552Z,98401.70
2022-09-26T04:27:15.606Z,98399.04
2022-09-26T04:27:48.857Z,98400.08
2022-09-26T04:28:23.543Z,98397.23
2022-09-26T04:28:58.118Z,98398.90
2022-09-26T04:29:31.247Z,98397.41
2022-09-26T04:30:04.770Z,98395.65
2022-09-26T04:30:38.535Z,98396.43
2022-09-26T04:31:12.917Z,98399.31
2022-09-26T04:31:46.502Z,98396.07
2022-09-26T04:32:19.822Z,98396.55
2022-09-26T04:32:52.996Z,98398.42
2022-09-26T04:33:26.362Z,98395.66
2022-09-26T04:34:00.582Z,98399.20
2022-09-26T04:34:33.661Z,98400.48
2022-09-26T04:35:07.077Z,98397.29
2022-09-26T04:35:40.229Z,98398.70
2022-09-26T04:36:15.524Z,98398.98
2022-09-26T04:36:48.664Z,98401.65
2022-09-26T04:37:21.948Z,98403.73
2022-09-26T04:37:55.068Z,98402.36
2022-09-26T04:38:34.732Z,98402.83
2022-09-26T04:39:07.932Z,98402.18
2022-09-26T04:39:42.250Z,98400.65
2022-09-26T04:40:15.682Z,98400.81
2022-09-26T04:40:48.919Z,98402.35
2022-09-26T04:41:22.499Z,98399.36
2022-09-26T04:41:55.579Z,98401.30
2022-09-26T04:42:28.749Z,98402.19
2022-09-26T04:43:02.258Z,98405.41
2022-09-26T04:43:36.179Z,98406.63
2022-09-26T04:44:13.098Z,98408.05
2022-09-26T04:44:46.415Z,98407.95
2022-09-26T04:45:19.565Z,98407.02
2022-09-26T04:45:52.742Z,98405.77
2022-09-26T04:46:30.652Z,98406.45
2022-09-26T04:47:04.330Z,98406.04
2022-09-26T04:47:37.387Z,98404.30
2022-09-26T04:48:10.657Z,98405.35
2022-09-26T04:48:44.723Z,98407.46
2022-09-26T04:49:17.892Z,98403.13
2022-09-26T04:49:51.899Z,98401.62
2022-09-26T04:50:25.086Z,98400.93
2022-09-26T04:50:58.728Z,98399.72
2022-09-26T04:51:32.960Z,98399.96
2022-09-26T04:52:06.562Z,98399.31
2022-09-26T04:52:39.504Z,98398.21
2022-09-26T04:53:12.823Z,98400.81
2022-09-26T04:53:46.620Z,98396.88
2022-09-26T04:54:20.661Z,98396.70
2022-09-26T04:54:54.577Z,98394.43
2022-09-26T04:55:28.231Z,98396.20
2022-09-26T04:56:02.164Z,98396.03
2022-09-26T04:56:35.339Z,98395.75
2022-09-26T04:57:08.504Z,98396.72
2022-09-26T04:57:41.712Z,98395.58
2022-09-26T04:58:17.252Z,98393.91
2022-09-26T04:58:50.660Z,98392.65
2022-09-26T04:59:23.807Z,98391.66
2022-09-26T04:59:56.888Z,98392.78
2022-09-26T05:00:30.333Z,98389.10
2022-09-26T05:01:06.200Z,98391.41
2022-09-26T05:01:39.682Z,98396.39
2022-09-26T05:02:12.862Z,98395.70
2022-09-26T05:02:47.510Z,98393.36
2022-09-26T05:03:20.675Z,98393.67
2022-09-26T05:03:55.931Z,98396.11
2022-09-26T05:04:33.585Z,98392.73
2022-09-26T05:05:07.106Z,98392.58
2022-09-26T05:05:41.583Z,98391.46
2022-09-26T05:06:16.414Z,98392.02
2022-09-26T05:06:50.189Z,98391.77
2022-09-26T05:07:23.268Z,98393.07
2022-09-26T05:07:57.523Z,98393.14
2022-09-26T05:08:30.675Z,98393.86
2022-09-26T05:09:04.684Z,98394.16
2022-09-26T05:09:37.970Z,98392.70
2022-09-26T05:10:11.692Z,98391.85
2022-09-26T05:10:53.075Z,98390.33
2022-09-26T05:11:26.266Z,98390.48
2022-09-26T05:11:59.554Z,98391.07
2022-09-26T05:12:33.341Z,98393.64
2022-09-26T05:13:07.909Z,98392.96
2022-09-26T05:13:41.035Z,98396.27
2022-09-26T05:14:14.411Z,98394.17
2022-09-26T05:14:47.553Z,98393.08
2022-09-26T05:15:21.853Z,98394.77
2022-09-26T05:15:55.997Z,98395.45
2022-09-26T05:16:30.345Z,98395.66
2022-09-26T05:17:04.143Z,98395.96
2022-09-26T05:17:37.981Z,98396.44
2022-09-26T05:18:14.219Z,98395.39
2022-09-26T05:18:53.419Z,98393.38
2022-09-26T05:19:27.159Z,98393.14
2022-09-26T05:20:01.373Z,98392.28
2022-09-26T05:20:48.501Z,98391.31
2022-09-26T05:21:21.788Z,98392.27
2022-09-26T05:21:55.180Z,98393.34
2022-09-26T05:22:32.036Z,98393.52
2022-09-26T05:23:07.590Z,98396.21
2022-09-26T05:23:59.403Z,98397.23
2022-09-26T05:24:51.220Z,98398.50
2022-09-26T05:25:44.449Z,98400.48
2022-09-26T05:26:23.732Z,98399.73
2022-09-26T05:26:56.945Z,98399.86
2022-09-26T05:27:31.044Z,98399.45
2022-09-26T05:28:04.466Z,98403.50
2022-09-26T05:28:38.018Z,98404.03
2022-09-26T05:29:12.423Z,98405.00
2022-09-26T05:29:46.451Z,98402.11
2022-09-26T05:30:19.784Z,98404.89
2022-09-26T05:30:53.717Z,98406.17
2022-09-26T05:31:29.461Z,98408.11
2022-09-26T05:32:02.931Z,98411.17
2022-09-26T05:32:36.237Z,98408.27
2022-09-26T05:33:10.210Z,98409.55
2022-09-26T05:33:44.850Z,98409.98
2022-09-26T05:34:20.201Z,98408.48
2022-09-26T05:34:54.685Z,98408.65
2022-09-26T05:35:28.017Z,98406.55
2022-09-26T05:36:01.335Z,98410.14
2022-09-26T05:36:34.861Z,98404.59
2022-09-26T05:37:07.881Z,98403.70
2022-09-26T05:37:41.301Z,98401.79
2022-09-26T05:38:14.617Z,98398.46
2022-09-26T05:38:48.054Z,98397.10
2022-09-26T05:39:42.508Z,98393.73
2022-09-26T05:40:34.740Z,98395.46
2022-09-26T05:41:07.955Z,98392.92
2022-09-26T05:41:41.076Z,98390.32
2022-09-26T05:42:15.537Z,98391.45
2022-09-26T05:42:48.566Z,98390.84
2022-09-26T05:43:22.981Z,98389.83
2022-09-26T05:43:56.662Z,98386.42
2022-09-26T05:44:31.050Z,98391.98
2022-09-26T05:45:05.207Z,98389.01
2022-09-26T05:45:38.758Z,98384.63
2022-09-26T05:46:12.458Z,98389.38
2022-09-26T05:46:47.810Z,98387.91
2022-09-26T05:47:22.161Z,98389.45
2022-09-26T05:47:55.266Z,98389.12
2022-09-26T05:48:30.132Z,98393.61
2022-09-26T05:49:03.417Z,98391.10
2022-09-26T05:49:36.940Z,98387.98
2022-09-26T05:50:11.216Z,98386.56
2022-09-26T05:50:44.303Z,98386.08
2022-09-26T05:51:21.564Z,98382.18
2022-09-26T05:51:54.933Z,98383.10
2022-09-26T05:52:29.186Z,98380.80
2022-09-26T05:53:03.378Z,98381.66
2022-09-26T05:53:37.095Z,98382.41
2022-09-26T05:54:10.473Z,98381.20
2022-09-26T05:54:43.831Z,98378.80
2022-09-26T05:55:17.174Z,98378.67
2022-09-26T05:55:51.363Z,98374.88
2022-09-26T05:56:25.101Z,98377.17
2022-09-26T05:56:58.456Z,98375.35
2022-09-26T05:57:32.192Z,98376.27
2022-09-26T05:58:06.577Z,98371.45
2022-09-26T05:58:41.814Z,98370.71
2022-09-26T05:59:15.006Z,98370.42
2022-09-26T05:59:48.515Z,98372.27
2022-09-26T06:00:21.803Z,98372.69
2022-09-26T06:00:55.054Z,98369.17
2022-09-26T06:01:28.105Z,98368.89
2022-09-26T06:02:01.427Z,98370.55
2022-09-26T06:02:35.487Z,98366.36
2022-09-26T06:03:09.071Z,98369.34
2022-09-26T06:03:44.347Z,98366.77
2022-09-26T06:04:19.486Z,98365.91
2022-09-26T06:04:52.760Z,98366.84
2022-09-26T06:05:26.405Z,98367.19
2022-09-26T06:06:03.379Z,98366.52
2022-09-26T06:06:36.817Z,98365.64
2022-09-26T06:07:10.931Z,98365.86
2022-09-26T06:07:44.294Z,98362.10
2022-09-26T06:08:17.700Z,98365.34
2022-09-26T06:08:51.300Z,98364.89
2022-09-26T06:09:24.517Z,98364.68
2022-09-26T06:09:57.585Z,98363.89
2022-09-26T06:10:31.629Z,98365.38
2022-09-26T06:11:10.794Z,98364.77
2022-09-26T06:11:44.009Z,98366.10
2022-09-26T06:12:20.016Z,98364.96
2022-09-26T06:12:53.223Z,98363.33
2022-09-26T06:13:27.012Z,98366.14
2022-09-26T06:14:01.052Z,98367.48
2022-09-26T06:14:34.488Z,98365.84
2022-09-26T06:15:09.828Z,98369.83
2022-09-26T06:15:43.481Z,98366.81
2022-09-26T06:16:19.304Z,98366.89
2022-09-26T06:16:53.039Z,98362.82
2022-09-26T06:17:26.893Z,98365.15
2022-09-26T06:18:06.441Z,98363.23
2022-09-26T06:18:40.138Z,98365.28
2022-09-26T06:19:13.324Z,98363.81
2022-09-26T06:19:46.661Z,98360.45
2022-09-26T06:20:19.842Z,98361.95
2022-09-26T06:20:53.232Z,98362.42
2022-09-26T06:21:26.504Z,98365.43
2022-09-26T06:22:00.281Z,98366.59
2022-09-26T06:22:41.801Z,98364.42
2022-09-26T06:23:14.925Z,98369.98
2022-09-26T06:23:48.049Z,98367.67
2022-09-26T06:24:21.623Z,98370.38
2022-09-26T06:24:55.200Z,98367.86
2022-09-26T06:25:29.636Z,98367.61
2022-09-26T06:26:04.053Z,98372.02
2022-09-26T06:26:37.953Z,98369.47
2022-09-26T06:27:11.570Z,98369.05
2022-09-26T06:27:44.569Z,98369.53
2022-09-26T06:28:18.782Z,98372.76
2022-09-26T06:29:02.745Z,98372.14
2022-09-26T06:29:35.967Z,98369.91
2022-09-26T06:30:13.270Z,98366.73
2022-09-26T06:30:46.427Z,98369.58
2022-09-26T06:31:21.062Z,98367.42
2022-09-26T06:31:54.360Z,98366.73
2022-09-26T06:32:27.831Z,98366.70
2022-09-26T06:33:02.039Z,98366.16
2022-09-26T06:33:35.191Z,98370.77
2022-09-26T06:34:08.434Z,98371.61
2022-09-26T06:34:41.567Z,98373.16
2022-09-26T06:35:15.261Z,98373.23
2022-09-26T06:35:48.548Z,98377.38
2022-09-26T06:36:23.956Z,98375.65
2022-09-26T06:36:57.092Z,98379.95
2022-09-26T06:37:30.247Z,98378.44
2022-09-26T06:38:05.371Z,98377.80
2022-09-26T06:38:39.547Z,98379.98
2022-09-26T06:39:13.172Z,98379.36
2022-09-26T06:39:46.631Z,98378.02
2022-09-26T06:40:19.848Z,98377.80
2022-09-26T06:40:55.717Z,98376.32
2022-09-26T06:41:29.038Z,98375.45
2022-09-26T06:42:05.965Z,98377.65
2022-09-26T06:42:39.481Z,98375.98
2022-09-26T06:43:12.703Z,98375.10
2022-09-26T06:43:46.565Z,98374.27
2022-09-26T06:44:19.661Z,98371.33
2022-09-26T06:44:52.847Z,98367.79
2022-09-26T06:45:29.116Z,98368.71
2022-09-26T06:46:02.576Z,98368.25
2022-09-26T06:46:35.810Z,98366.98
2022-09-26T06:47:09.258Z,98365.59
2022-09-26T06:47:42.435Z,98367.23
2022-09-26T06:48:21.007Z,98364.08
2022-09-26T06:48:57.731Z,98367.13
2022-09-26T06:49:30.964Z,98368.91
2022-09-26T06:50:05.220Z,98370.64
2022-09-26T06:50:38.534Z,98371.36
2022-09-26T06:51:14.074Z,98373.81
2022-09-26T06:51:49.274Z,98375.28
2022-09-26T06:52:22.318Z,98379.58
2022-09-26T06:52:55.629Z,98381.20
2022-09-26T06:53:28.833Z,98379.31
2022-09-26T06:54:01.971Z,98380.36
2022-09-26T06:54:35.175Z,98381.48
2022-09-26T06:55:09.676Z,98382.24
2022-09-26T06:55:42.847Z,98380.39
2022-09-26T06:56:16.935Z,98382.74
2022-09-26T06:56:50.049Z,98383.79
2022-09-26T06:57:23.298Z,98379.77
2022-09-26T06:57:58.920Z,98381.40
2022-09-26T06:58:32.387Z,98375.95
2022-09-26T06:59:05.537Z,98376.33
2022-09-26T06:59:39.240Z,98373.69
2022-09-26T07:00:16.068Z,98377.61
2022-09-26T07:00:49.320Z,98377.55
2022-09-26T07:01:22.686Z,98377.96
2022-09-26T07:01:56.062Z,98378.64
2022-09-26T07:02:29.409Z,98375.95
2022-09-26T07:03:03.144Z,98375.59
2022-09-26T07:03:38.640Z,98377.74
2022-09-26T07:04:16.318Z,98375.99
2022-09-26T07:04:49.713Z,98380.14
2022-09-26T07:05:24.930Z,98379.28
2022-09-26T07:05:58.666Z,98382.29
2022-09-26T07:06:31.932Z,98383.38
2022-09-26T07:07:06.125Z,98386.80
2022-09-26T07:07:43.335Z,98388.02
2022-09-26T07:08:17.328Z,98386.93
2022-09-26T07:09:12.074Z,98387.98
2022-09-26T07:09:45.623Z,98388.52
2022-09-26T07:10:20.053Z,98387.48
2022-09-26T07:11:02.917Z,98386.95
2022-09-26T07:12:12.915Z,98387.13
2022-09-26T07:12:44.221Z,98383.40
2022-09-26T07:13:17.739Z,98383.09
2022-09-26T07:13:51.031Z,98381.86
2022-09-26T07:14:24.110Z,98384.83
2022-09-26T07:14:58.293Z,98385.84
2022-09-26T07:15:34.190Z,98387.10
2022-09-26T07:16:07.502Z,98386.02
2022-09-26T07:16:40.802Z,98385.38